sensor_id;sensor_type;location;lat;lon;timestamp;temperature;humidity
9925;DHT22;5001;51.674;7.868;2024-03-02T00:00:21;7.30;99.90
9925;DHT22;5001;51.674;7.868;2024-03-02T00:02:49;7.20;99.90
9925;DHT22;5001;51.674;7.868;2024-03-02T00:05:18;7.10;99.90
9925;DHT22;5001;51.674;7.868;2024-03-02T00:07:56;7.10;99.90
9925;DHT22;5001;51.674;7.868;2024-03-02T00:10:37;7.00;99.90
9925;DHT22;5001;51.674;7.868;2024-03-02T00:13:07;7.00;99.90
9925;DHT22;5001;51.674;7.868;2024-03-02T00:18:14;7.00;99.90
9925;DHT22;5001;51.674;7.868;2024-03-02T00:20:43;6.90;99.90
9925;DHT22;5001;51.674;7.868;2024-03-02T00:23:16;6.80;99.90
9925;DHT22;5001;51.674;7.868;2024-03-02T00:25:47;6.80;99.90
9925;DHT22;5001;51.674;7.868;2024-03-02T00:28:23;6.70;99.90
9925;DHT22;5001;51.674;7.868;2024-03-02T00:31:10;6.60;99.90
9925;DHT22;5001;51.674;7.868;2024-03-02T00:33:42;6.70;99.90
9925;DHT22;5001;51.674;7.868;2024-03-02T00:36:12;6.80;99.90
9925;DHT22;5001;51.674;7.868;2024-03-02T00:38:47;6.70;99.90
9925;DHT22;5001;51.674;7.868;2024-03-02T00:41:27;6.60;99.90
9925;DHT22;5001;51.674;7.868;2024-03-02T00:44:03;6.60;99.90
9925;DHT22;5001;51.674;7.868;2024-03-02T00:46:37;6.50;99.90
9925;DHT22;5001;51.674;7.868;2024-03-02T00:51:39;6.60;99.90
9925;DHT22;5001;51.674;7.868;2024-03-02T00:54:08;6.70;99.90
9925;DHT22;5001;51.674;7.868;2024-03-02T00:56:36;6.60;99.90
9925;DHT22;5001;51.674;7.868;2024-03-02T00:59:03;6.70;99.90
9925;DHT22;5001;51.674;7.868;2024-03-02T01:01:30;6.70;99.90
9925;DHT22;5001;51.674;7.868;2024-03-02T01:03:57;6.80;99.90
9925;DHT22;5001;51.674;7.868;2024-03-02T01:06:26;6.70;99.90
9925;DHT22;5001;51.674;7.868;2024-03-02T01:08:53;6.70;99.90
9925;DHT22;5001;51.674;7.868;2024-03-02T01:11:20;6.70;99.90
9925;DHT22;5001;51.674;7.868;2024-03-02T01:13:51;6.70;99.90
9925;DHT22;5001;51.674;7.868;2024-03-02T01:16:19;6.80;99.90
9925;DHT22;5001;51.674;7.868;2024-03-02T01:18:46;6.70;99.90
9925;DHT22;5001;51.674;7.868;2024-03-02T01:21:15;6.60;99.90
9925;DHT22;5001;51.674;7.868;2024-03-02T01:23:42;6.60;99.90
9925;DHT22;5001;51.674;7.868;2024-03-02T01:26:09;6.50;99.90
9925;DHT22;5001;51.674;7.868;2024-03-02T01:28:36;6.50;99.90
9925;DHT22;5001;51.674;7.868;2024-03-02T01:31:03;6.60;99.90
9925;DHT22;5001;51.674;7.868;2024-03-02T01:33:30;6.60;99.90
9925;DHT22;5001;51.674;7.868;2024-03-02T01:35:57;6.60;99.90
9925;DHT22;5001;51.674;7.868;2024-03-02T01:38:24;6.50;99.90
9925;DHT22;5001;51.674;7.868;2024-03-02T01:40:51;6.50;99.90
9925;DHT22;5001;51.674;7.868;2024-03-02T01:43:18;6.50;99.90
9925;DHT22;5001;51.674;7.868;2024-03-02T01:45:46;6.50;99.90
9925;DHT22;5001;51.674;7.868;2024-03-02T01:48:13;6.40;99.90
9925;DHT22;5001;51.674;7.868;2024-03-02T01:50:40;6.40;99.90
9925;DHT22;5001;51.674;7.868;2024-03-02T01:53:08;6.30;99.90
9925;DHT22;5001;51.674;7.868;2024-03-02T01:55:36;6.40;99.90
9925;DHT22;5001;51.674;7.868;2024-03-02T01:58:03;6.40;99.90
9925;DHT22;5001;51.674;7.868;2024-03-02T02:00:30;6.40;99.90
9925;DHT22;5001;51.674;7.868;2024-03-02T02:02:59;6.40;99.90
9925;DHT22;5001;51.674;7.868;2024-03-02T02:05:26;6.40;99.90
9925;DHT22;5001;51.674;7.868;2024-03-02T02:07:53;6.40;99.90
9925;DHT22;5001;51.674;7.868;2024-03-02T02:10:20;6.30;99.90
9925;DHT22;5001;51.674;7.868;2024-03-02T02:12:47;6.20;99.90
9925;DHT22;5001;51.674;7.868;2024-03-02T02:15:30;6.30;99.90
9925;DHT22;5001;51.674;7.868;2024-03-02T02:17:58;6.40;99.90
9925;DHT22;5001;51.674;7.868;2024-03-02T02:20:26;6.30;99.90
9925;DHT22;5001;51.674;7.868;2024-03-02T02:23:03;6.30;99.90
9925;DHT22;5001;51.674;7.868;2024-03-02T02:25:32;6.20;99.90
9925;DHT22;5001;51.674;7.868;2024-03-02T02:27:59;6.20;99.90
9925;DHT22;5001;51.674;7.868;2024-03-02T02:30:30;6.20;99.90
9925;DHT22;5001;51.674;7.868;2024-03-02T02:32:58;6.20;99.90
9925;DHT22;5001;51.674;7.868;2024-03-02T02:35:25;6.10;99.90
9925;DHT22;5001;51.674;7.868;2024-03-02T02:37:54;6.20;99.90
9925;DHT22;5001;51.674;7.868;2024-03-02T02:40:21;6.10;99.90
9925;DHT22;5001;51.674;7.868;2024-03-02T02:42:48;6.10;99.90
9925;DHT22;5001;51.674;7.868;2024-03-02T02:45:16;6.10;99.90
9925;DHT22;5001;51.674;7.868;2024-03-02T02:47:44;6.00;99.90
9925;DHT22;5001;51.674;7.868;2024-03-02T02:50:12;6.00;99.90
9925;DHT22;5001;51.674;7.868;2024-03-02T02:52:40;6.00;99.90
9925;DHT22;5001;51.674;7.868;2024-03-02T02:55:12;6.00;99.90
9925;DHT22;5001;51.674;7.868;2024-03-02T02:57:40;6.00;99.90
9925;DHT22;5001;51.674;7.868;2024-03-02T03:00:11;5.90;99.90
9925;DHT22;5001;51.674;7.868;2024-03-02T03:03:33;6.00;99.90
9925;DHT22;5001;51.674;7.868;2024-03-02T03:06:00;5.90;99.90
9925;DHT22;5001;51.674;7.868;2024-03-02T03:08:27;5.90;99.90
9925;DHT22;5001;51.674;7.868;2024-03-02T03:10:54;5.90;99.90
9925;DHT22;5001;51.674;7.868;2024-03-02T03:13:21;5.80;99.90
9925;DHT22;5001;51.674;7.868;2024-03-02T03:15:48;5.80;99.90
9925;DHT22;5001;51.674;7.868;2024-03-02T03:18:15;5.80;99.90
9925;DHT22;5001;51.674;7.868;2024-03-02T03:20:42;5.80;99.90
9925;DHT22;5001;51.674;7.868;2024-03-02T03:23:09;5.90;99.90
9925;DHT22;5001;51.674;7.868;2024-03-02T03:25:36;5.90;99.90
9925;DHT22;5001;51.674;7.868;2024-03-02T03:28:03;5.90;99.90
9925;DHT22;5001;51.674;7.868;2024-03-02T03:30:30;5.80;99.90
9925;DHT22;5001;51.674;7.868;2024-03-02T03:32:57;5.80;99.90
9925;DHT22;5001;51.674;7.868;2024-03-02T03:35:24;5.70;99.90
9925;DHT22;5001;51.674;7.868;2024-03-02T03:37:51;5.70;99.90
9925;DHT22;5001;51.674;7.868;2024-03-02T03:40:18;5.70;99.90
9925;DHT22;5001;51.674;7.868;2024-03-02T03:42:46;5.70;99.90
9925;DHT22;5001;51.674;7.868;2024-03-02T03:45:13;5.70;99.90
9925;DHT22;5001;51.674;7.868;2024-03-02T03:47:40;5.70;99.90
9925;DHT22;5001;51.674;7.868;2024-03-02T03:50:07;5.60;99.90
9925;DHT22;5001;51.674;7.868;2024-03-02T03:52:34;5.70;99.90
9925;DHT22;5001;51.674;7.868;2024-03-02T03:55:01;5.60;99.90
9925;DHT22;5001;51.674;7.868;2024-03-02T03:57:28;5.50;99.90
9925;DHT22;5001;51.674;7.868;2024-03-02T03:59:55;5.50;99.90
9925;DHT22;5001;51.674;7.868;2024-03-02T04:02:22;5.50;99.90
9925;DHT22;5001;51.674;7.868;2024-03-02T04:04:51;5.60;99.90
9925;DHT22;5001;51.674;7.868;2024-03-02T04:07:18;5.50;99.90
9925;DHT22;5001;51.674;7.868;2024-03-02T04:09:45;5.40;99.90
9925;DHT22;5001;51.674;7.868;2024-03-02T04:12:12;5.40;99.90
9925;DHT22;5001;51.674;7.868;2024-03-02T04:14:39;5.40;99.90
9925;DHT22;5001;51.674;7.868;2024-03-02T04:17:09;5.30;99.90
9925;DHT22;5001;51.674;7.868;2024-03-02T04:19:36;5.30;99.90
9925;DHT22;5001;51.674;7.868;2024-03-02T04:22:03;5.30;99.90
9925;DHT22;5001;51.674;7.868;2024-03-02T04:24:44;5.30;99.90
9925;DHT22;5001;51.674;7.868;2024-03-02T04:27:12;5.40;99.90
9925;DHT22;5001;51.674;7.868;2024-03-02T04:29:39;5.40;99.90
9925;DHT22;5001;51.674;7.868;2024-03-02T04:32:06;5.40;99.90
9925;DHT22;5001;51.674;7.868;2024-03-02T04:34:33;5.50;99.90
9925;DHT22;5001;51.674;7.868;2024-03-02T04:37:00;5.50;99.90
9925;DHT22;5001;51.674;7.868;2024-03-02T04:39:27;5.50;99.90
9925;DHT22;5001;51.674;7.868;2024-03-02T04:41:55;5.50;99.90
9925;DHT22;5001;51.674;7.868;2024-03-02T04:44:22;5.50;99.90
9925;DHT22;5001;51.674;7.868;2024-03-02T04:46:49;5.50;99.90
9925;DHT22;5001;51.674;7.868;2024-03-02T04:49:16;5.50;99.90
9925;DHT22;5001;51.674;7.868;2024-03-02T04:51:43;5.50;99.90
9925;DHT22;5001;51.674;7.868;2024-03-02T04:54:10;5.50;99.90
9925;DHT22;5001;51.674;7.868;2024-03-02T04:56:37;5.50;99.90
9925;DHT22;5001;51.674;7.868;2024-03-02T04:59:11;5.50;99.90
9925;DHT22;5001;51.674;7.868;2024-03-02T05:01:38;5.50;99.90
9925;DHT22;5001;51.674;7.868;2024-03-02T05:04:05;5.30;99.90
9925;DHT22;5001;51.674;7.868;2024-03-02T05:06:32;5.30;99.90
9925;DHT22;5001;51.674;7.868;2024-03-02T05:08:59;5.30;99.90
9925;DHT22;5001;51.674;7.868;2024-03-02T05:11:26;5.30;99.90
9925;DHT22;5001;51.674;7.868;2024-03-02T05:14:06;5.30;99.90
9925;DHT22;5001;51.674;7.868;2024-03-02T05:16:36;5.30;99.90
9925;DHT22;5001;51.674;7.868;2024-03-02T05:19:05;5.30;99.90
9925;DHT22;5001;51.674;7.868;2024-03-02T05:21:35;5.40;99.90
9925;DHT22;5001;51.674;7.868;2024-03-02T05:24:02;5.50;99.90
9925;DHT22;5001;51.674;7.868;2024-03-02T05:26:29;5.60;99.90
9925;DHT22;5001;51.674;7.868;2024-03-02T05:28:56;5.60;99.90
9925;DHT22;5001;51.674;7.868;2024-03-02T05:31:23;5.60;99.90
9925;DHT22;5001;51.674;7.868;2024-03-02T05:33:50;5.70;99.90
9925;DHT22;5001;51.674;7.868;2024-03-02T05:36:23;5.60;99.90
9925;DHT22;5001;51.674;7.868;2024-03-02T05:38:50;5.60;99.90
9925;DHT22;5001;51.674;7.868;2024-03-02T05:41:17;5.70;99.90
9925;DHT22;5001;51.674;7.868;2024-03-02T05:43:44;5.60;99.90
9925;DHT22;5001;51.674;7.868;2024-03-02T05:46:11;5.80;99.90
9925;DHT22;5001;51.674;7.868;2024-03-02T05:48:38;5.90;99.90
9925;DHT22;5001;51.674;7.868;2024-03-02T05:51:05;6.00;99.90
9925;DHT22;5001;51.674;7.868;2024-03-02T05:53:32;6.40;99.90
9925;DHT22;5001;51.674;7.868;2024-03-02T05:56:00;6.40;99.90
9925;DHT22;5001;51.674;7.868;2024-03-02T05:58:31;6.50;99.90
9925;DHT22;5001;51.674;7.868;2024-03-02T06:01:17;6.50;99.90
9925;DHT22;5001;51.674;7.868;2024-03-02T06:03:45;6.40;99.90
9925;DHT22;5001;51.674;7.868;2024-03-02T06:06:12;6.30;99.90
9925;DHT22;5001;51.674;7.868;2024-03-02T06:08:39;6.30;99.90
9925;DHT22;5001;51.674;7.868;2024-03-02T06:11:06;6.30;99.90
9925;DHT22;5001;51.674;7.868;2024-03-02T06:13:33;6.20;99.90
9925;DHT22;5001;51.674;7.868;2024-03-02T06:16:00;6.50;99.90
9925;DHT22;5001;51.674;7.868;2024-03-02T06:18:27;6.40;99.90
9925;DHT22;5001;51.674;7.868;2024-03-02T06:20:54;6.60;99.90
9925;DHT22;5001;51.674;7.868;2024-03-02T06:23:21;6.70;99.90
9925;DHT22;5001;51.674;7.868;2024-03-02T06:25:48;6.70;99.90
9925;DHT22;5001;51.674;7.868;2024-03-02T06:28:15;6.70;99.90
9925;DHT22;5001;51.674;7.868;2024-03-02T06:30:45;6.70;99.90
9925;DHT22;5001;51.674;7.868;2024-03-02T06:33:13;6.60;99.90
9925;DHT22;5001;51.674;7.868;2024-03-02T06:35:42;6.70;99.90
9925;DHT22;5001;51.674;7.868;2024-03-02T06:38:09;6.70;99.90
9925;DHT22;5001;51.674;7.868;2024-03-02T06:40:36;6.80;99.90
9925;DHT22;5001;51.674;7.868;2024-03-02T06:43:11;6.70;99.90
9925;DHT22;5001;51.674;7.868;2024-03-02T06:45:38;6.80;99.90
9925;DHT22;5001;51.674;7.868;2024-03-02T06:48:05;6.80;99.90
9925;DHT22;5001;51.674;7.868;2024-03-02T06:50:32;6.90;99.90
9925;DHT22;5001;51.674;7.868;2024-03-02T06:52:59;6.90;99.90
9925;DHT22;5001;51.674;7.868;2024-03-02T06:55:26;7.10;99.90
9925;DHT22;5001;51.674;7.868;2024-03-02T06:57:53;7.20;99.90
9925;DHT22;5001;51.674;7.868;2024-03-02T07:00:20;7.40;99.90
9925;DHT22;5001;51.674;7.868;2024-03-02T07:02:47;7.50;99.90
9925;DHT22;5001;51.674;7.868;2024-03-02T07:05:15;7.50;99.90
9925;DHT22;5001;51.674;7.868;2024-03-02T07:07:41;7.50;99.90
9925;DHT22;5001;51.674;7.868;2024-03-02T07:10:09;8.00;99.90
9925;DHT22;5001;51.674;7.868;2024-03-02T07:12:36;8.60;99.90
9925;DHT22;5001;51.674;7.868;2024-03-02T07:15:05;9.30;99.90
9925;DHT22;5001;51.674;7.868;2024-03-02T07:17:33;9.20;99.90
9925;DHT22;5001;51.674;7.868;2024-03-02T07:20:00;8.80;99.90
9925;DHT22;5001;51.674;7.868;2024-03-02T07:22:27;8.50;99.90
9925;DHT22;5001;51.674;7.868;2024-03-02T07:24:54;8.70;99.90
9925;DHT22;5001;51.674;7.868;2024-03-02T07:27:21;8.70;99.90
9925;DHT22;5001;51.674;7.868;2024-03-02T07:29:48;8.90;99.90
9925;DHT22;5001;51.674;7.868;2024-03-02T07:32:15;9.10;99.90
9925;DHT22;5001;51.674;7.868;2024-03-02T07:34:42;9.40;99.90
9925;DHT22;5001;51.674;7.868;2024-03-02T07:37:09;9.60;99.90
9925;DHT22;5001;51.674;7.868;2024-03-02T07:39:36;9.60;99.90
9925;DHT22;5001;51.674;7.868;2024-03-02T07:42:04;9.60;99.90
9925;DHT22;5001;51.674;7.868;2024-03-02T07:44:31;9.80;99.90
9925;DHT22;5001;51.674;7.868;2024-03-02T07:46:58;9.90;99.90
9925;DHT22;5001;51.674;7.868;2024-03-02T07:49:25;10.10;99.90
9925;DHT22;5001;51.674;7.868;2024-03-02T07:51:52;9.90;99.90
9925;DHT22;5001;51.674;7.868;2024-03-02T07:54:19;9.60;99.90
9925;DHT22;5001;51.674;7.868;2024-03-02T07:56:47;9.80;99.90
9925;DHT22;5001;51.674;7.868;2024-03-02T07:59:15;9.90;99.90
9925;DHT22;5001;51.674;7.868;2024-03-02T08:01:42;9.70;99.90
9925;DHT22;5001;51.674;7.868;2024-03-02T08:04:09;9.70;99.90
9925;DHT22;5001;51.674;7.868;2024-03-02T08:06:36;9.70;99.90
9925;DHT22;5001;51.674;7.868;2024-03-02T08:09:03;9.80;99.90
9925;DHT22;5001;51.674;7.868;2024-03-02T08:11:36;9.80;99.90
9925;DHT22;5001;51.674;7.868;2024-03-02T08:14:04;9.90;99.90
9925;DHT22;5001;51.674;7.868;2024-03-02T08:16:31;10.00;99.90
9925;DHT22;5001;51.674;7.868;2024-03-02T08:18:58;10.20;99.90
9925;DHT22;5001;51.674;7.868;2024-03-02T08:21:26;10.60;99.90
9925;DHT22;5001;51.674;7.868;2024-03-02T08:23:53;10.90;99.90
9925;DHT22;5001;51.674;7.868;2024-03-02T08:26:20;10.70;99.90
9925;DHT22;5001;51.674;7.868;2024-03-02T08:28:47;11.10;99.90
9925;DHT22;5001;51.674;7.868;2024-03-02T08:31:13;11.40;99.90
9925;DHT22;5001;51.674;7.868;2024-03-02T08:33:41;11.50;99.90
9925;DHT22;5001;51.674;7.868;2024-03-02T08:36:08;11.50;99.90
9925;DHT22;5001;51.674;7.868;2024-03-02T08:38:36;11.10;99.90
9925;DHT22;5001;51.674;7.868;2024-03-02T08:41:03;11.00;99.90
9925;DHT22;5001;51.674;7.868;2024-03-02T08:43:31;10.90;99.90
9925;DHT22;5001;51.674;7.868;2024-03-02T08:45:58;11.10;99.90
9925;DHT22;5001;51.674;7.868;2024-03-02T08:48:25;10.90;99.90
9925;DHT22;5001;51.674;7.868;2024-03-02T08:50:52;10.80;99.90
9925;DHT22;5001;51.674;7.868;2024-03-02T08:53:19;10.70;99.90
9925;DHT22;5001;51.674;7.868;2024-03-02T08:55:46;10.80;99.90
9925;DHT22;5001;51.674;7.868;2024-03-02T08:58:13;10.90;99.90
9925;DHT22;5001;51.674;7.868;2024-03-02T09:00:40;11.30;99.90
9925;DHT22;5001;51.674;7.868;2024-03-02T09:03:08;11.70;99.90
9925;DHT22;5001;51.674;7.868;2024-03-02T09:05:35;12.00;99.90
9925;DHT22;5001;51.674;7.868;2024-03-02T09:08:02;12.10;99.90
9925;DHT22;5001;51.674;7.868;2024-03-02T09:10:30;12.40;99.90
9925;DHT22;5001;51.674;7.868;2024-03-02T09:12:58;14.40;99.90
9925;DHT22;5001;51.674;7.868;2024-03-02T09:15:25;15.30;99.90
9925;DHT22;5001;51.674;7.868;2024-03-02T09:17:52;15.80;99.90
9925;DHT22;5001;51.674;7.868;2024-03-02T09:20:19;16.20;99.90
9925;DHT22;5001;51.674;7.868;2024-03-02T09:22:46;18.80;99.90
9925;DHT22;5001;51.674;7.868;2024-03-02T09:25:15;22.50;99.90
9925;DHT22;5001;51.674;7.868;2024-03-02T09:27:43;23.60;99.90
9925;DHT22;5001;51.674;7.868;2024-03-02T09:30:10;22.10;99.90
9925;DHT22;5001;51.674;7.868;2024-03-02T09:32:37;23.30;99.90
9925;DHT22;5001;51.674;7.868;2024-03-02T09:35:05;23.30;99.90
9925;DHT22;5001;51.674;7.868;2024-03-02T09:37:32;21.50;99.90
9925;DHT22;5001;51.674;7.868;2024-03-02T09:39:59;21.70;99.90
9925;DHT22;5001;51.674;7.868;2024-03-02T09:42:26;21.10;99.90
9925;DHT22;5001;51.674;7.868;2024-03-02T09:44:53;19.60;99.90
9925;DHT22;5001;51.674;7.868;2024-03-02T09:47:20;21.20;99.90
9925;DHT22;5001;51.674;7.868;2024-03-02T09:49:47;22.60;99.90
9925;DHT22;5001;51.674;7.868;2024-03-02T09:52:16;21.50;99.90
9925;DHT22;5001;51.674;7.868;2024-03-02T09:54:43;23.90;99.90
9925;DHT22;5001;51.674;7.868;2024-03-02T09:57:10;23.40;99.90
9925;DHT22;5001;51.674;7.868;2024-03-02T09:59:37;22.70;99.90
9925;DHT22;5001;51.674;7.868;2024-03-02T10:02:04;23.60;99.90
9925;DHT22;5001;51.674;7.868;2024-03-02T10:04:34;22.60;99.90
9925;DHT22;5001;51.674;7.868;2024-03-02T10:07:14;22.30;99.90
9925;DHT22;5001;51.674;7.868;2024-03-02T10:09:43;21.30;99.90
9925;DHT22;5001;51.674;7.868;2024-03-02T10:12:13;21.70;99.90
9925;DHT22;5001;51.674;7.868;2024-03-02T10:14:40;21.00;99.90
9925;DHT22;5001;51.674;7.868;2024-03-02T10:17:09;20.30;99.90
9925;DHT22;5001;51.674;7.868;2024-03-02T10:19:37;21.00;99.90
9925;DHT22;5001;51.674;7.868;2024-03-02T10:22:07;22.50;99.90
9925;DHT22;5001;51.674;7.868;2024-03-02T10:27:26;23.30;99.90
9925;DHT22;5001;51.674;7.868;2024-03-02T10:29:54;22.70;99.90
9925;DHT22;5001;51.674;7.868;2024-03-02T10:32:22;23.10;99.90
9925;DHT22;5001;51.674;7.868;2024-03-02T10:34:50;23.10;99.90
9925;DHT22;5001;51.674;7.868;2024-03-02T10:37:17;21.00;99.90
9925;DHT22;5001;51.674;7.868;2024-03-02T10:39:46;20.70;99.90
9925;DHT22;5001;51.674;7.868;2024-03-02T10:42:14;20.10;99.90
9925;DHT22;5001;51.674;7.868;2024-03-02T10:44:42;20.30;99.90
9925;DHT22;5001;51.674;7.868;2024-03-02T10:47:12;21.50;99.90
9925;DHT22;5001;51.674;7.868;2024-03-02T10:49:42;22.90;99.90
9925;DHT22;5001;51.674;7.868;2024-03-02T10:52:10;22.70;99.90
9925;DHT22;5001;51.674;7.868;2024-03-02T10:54:37;21.10;99.90
9925;DHT22;5001;51.674;7.868;2024-03-02T10:57:07;20.50;99.90
9925;DHT22;5001;51.674;7.868;2024-03-02T10:59:37;19.40;99.90
9925;DHT22;5001;51.674;7.868;2024-03-02T11:02:11;18.50;99.90
9925;DHT22;5001;51.674;7.868;2024-03-02T11:04:39;19.20;99.90
9925;DHT22;5001;51.674;7.868;2024-03-02T11:07:09;18.60;99.90
9925;DHT22;5001;51.674;7.868;2024-03-02T11:09:47;19.50;99.90
9925;DHT22;5001;51.674;7.868;2024-03-02T11:12:21;19.80;99.90
9925;DHT22;5001;51.674;7.868;2024-03-02T11:14:51;18.40;99.90
9925;DHT22;5001;51.674;7.868;2024-03-02T11:17:21;18.00;99.90
9925;DHT22;5001;51.674;7.868;2024-03-02T11:19:49;17.90;99.90
9925;DHT22;5001;51.674;7.868;2024-03-02T11:22:17;18.50;99.90
9925;DHT22;5001;51.674;7.868;2024-03-02T11:24:51;18.30;99.90
9925;DHT22;5001;51.674;7.868;2024-03-02T11:33:02;17.50;99.90
9925;DHT22;5001;51.674;7.868;2024-03-02T11:35:42;17.30;99.90
9925;DHT22;5001;51.674;7.868;2024-03-02T11:38:16;16.90;99.90
9925;DHT22;5001;51.674;7.868;2024-03-02T11:40:44;17.00;99.90
9925;DHT22;5001;51.674;7.868;2024-03-02T11:43:11;17.20;99.90
9925;DHT22;5001;51.674;7.868;2024-03-02T11:45:42;17.00;99.90
9925;DHT22;5001;51.674;7.868;2024-03-02T11:48:14;18.30;99.90
9925;DHT22;5001;51.674;7.868;2024-03-02T11:50:47;18.30;99.90
9925;DHT22;5001;51.674;7.868;2024-03-02T11:53:16;17.60;99.90
9925;DHT22;5001;51.674;7.868;2024-03-02T11:55:45;17.30;99.90
9925;DHT22;5001;51.674;7.868;2024-03-02T11:58:16;17.40;99.90
9925;DHT22;5001;51.674;7.868;2024-03-02T12:00:54;17.10;99.90
9925;DHT22;5001;51.674;7.868;2024-03-02T12:03:24;16.60;99.90
9925;DHT22;5001;51.674;7.868;2024-03-02T12:05:53;16.30;99.90
9925;DHT22;5001;51.674;7.868;2024-03-02T12:08:21;17.20;99.90
9925;DHT22;5001;51.674;7.868;2024-03-02T12:11:01;17.20;99.90
9925;DHT22;5001;51.674;7.868;2024-03-02T12:13:30;17.00;99.90
9925;DHT22;5001;51.674;7.868;2024-03-02T12:15:58;17.40;99.90
9925;DHT22;5001;51.674;7.868;2024-03-02T12:18:25;16.80;99.90
9925;DHT22;5001;51.674;7.868;2024-03-02T12:20:53;16.40;99.90
9925;DHT22;5001;51.674;7.868;2024-03-02T12:23:24;16.60;99.90
9925;DHT22;5001;51.674;7.868;2024-03-02T12:25:52;16.90;99.90
9925;DHT22;5001;51.674;7.868;2024-03-02T12:28:19;16.60;99.90
9925;DHT22;5001;51.674;7.868;2024-03-02T12:30:46;16.70;99.90
9925;DHT22;5001;51.674;7.868;2024-03-02T12:33:15;17.30;99.90
9925;DHT22;5001;51.674;7.868;2024-03-02T12:35:42;17.00;99.90
9925;DHT22;5001;51.674;7.868;2024-03-02T12:38:09;17.30;99.90
9925;DHT22;5001;51.674;7.868;2024-03-02T12:40:37;17.80;99.90
9925;DHT22;5001;51.674;7.868;2024-03-02T12:43:05;17.40;99.90
9925;DHT22;5001;51.674;7.868;2024-03-02T12:45:34;16.90;99.90
9925;DHT22;5001;51.674;7.868;2024-03-02T12:48:02;17.40;99.90
9925;DHT22;5001;51.674;7.868;2024-03-02T12:50:30;17.60;99.90
9925;DHT22;5001;51.674;7.868;2024-03-02T12:52:57;17.00;99.90
9925;DHT22;5001;51.674;7.868;2024-03-02T12:55:25;17.00;99.90
9925;DHT22;5001;51.674;7.868;2024-03-02T12:57:52;17.10;99.90
9925;DHT22;5001;51.674;7.868;2024-03-02T13:00:21;17.00;99.90
9925;DHT22;5001;51.674;7.868;2024-03-02T13:02:50;17.20;99.90
9925;DHT22;5001;51.674;7.868;2024-03-02T13:05:19;16.90;99.90
9925;DHT22;5001;51.674;7.868;2024-03-02T13:07:47;16.30;99.90
9925;DHT22;5001;51.674;7.868;2024-03-02T13:10:16;16.00;99.90
9925;DHT22;5001;51.674;7.868;2024-03-02T13:12:45;15.90;99.90
9925;DHT22;5001;51.674;7.868;2024-03-02T13:15:12;16.40;99.90
9925;DHT22;5001;51.674;7.868;2024-03-02T13:17:45;16.90;99.90
9925;DHT22;5001;51.674;7.868;2024-03-02T13:20:15;16.80;99.90
9925;DHT22;5001;51.674;7.868;2024-03-02T13:22:44;16.70;99.90
9925;DHT22;5001;51.674;7.868;2024-03-02T13:25:11;16.20;99.90
9925;DHT22;5001;51.674;7.868;2024-03-02T13:27:39;16.20;99.90
9925;DHT22;5001;51.674;7.868;2024-03-02T13:30:06;16.10;99.90
9925;DHT22;5001;51.674;7.868;2024-03-02T13:32:36;15.60;99.90
9925;DHT22;5001;51.674;7.868;2024-03-02T13:35:03;15.60;99.90
9925;DHT22;5001;51.674;7.868;2024-03-02T13:37:30;15.60;99.90
9925;DHT22;5001;51.674;7.868;2024-03-02T13:39:57;15.50;99.90
9925;DHT22;5001;51.674;7.868;2024-03-02T13:42:25;15.40;99.90
9925;DHT22;5001;51.674;7.868;2024-03-02T13:44:52;15.20;99.90
9925;DHT22;5001;51.674;7.868;2024-03-02T13:47:19;15.10;99.90
9925;DHT22;5001;51.674;7.868;2024-03-02T13:49:47;14.90;99.90
9925;DHT22;5001;51.674;7.868;2024-03-02T13:52:15;14.90;99.90
9925;DHT22;5001;51.674;7.868;2024-03-02T13:54:47;14.90;99.90
9925;DHT22;5001;51.674;7.868;2024-03-02T13:57:15;15.10;99.90
9925;DHT22;5001;51.674;7.868;2024-03-02T13:59:44;14.90;99.90
9925;DHT22;5001;51.674;7.868;2024-03-02T14:02:12;14.90;99.90
9925;DHT22;5001;51.674;7.868;2024-03-02T14:04:39;15.00;99.90
9925;DHT22;5001;51.674;7.868;2024-03-02T14:07:06;15.00;99.90
9925;DHT22;5001;51.674;7.868;2024-03-02T14:09:34;14.90;99.90
9925;DHT22;5001;51.674;7.868;2024-03-02T14:12:02;15.10;99.90
9925;DHT22;5001;51.674;7.868;2024-03-02T14:14:29;15.10;99.90
9925;DHT22;5001;51.674;7.868;2024-03-02T14:16:57;14.90;99.90
9925;DHT22;5001;51.674;7.868;2024-03-02T14:19:27;14.70;99.90
9925;DHT22;5001;51.674;7.868;2024-03-02T14:21:54;14.70;99.90
9925;DHT22;5001;51.674;7.868;2024-03-02T14:24:21;14.90;99.90
9925;DHT22;5001;51.674;7.868;2024-03-02T14:26:53;14.90;99.90
9925;DHT22;5001;51.674;7.868;2024-03-02T14:29:28;14.70;99.90
9925;DHT22;5001;51.674;7.868;2024-03-02T14:31:56;14.70;99.90
9925;DHT22;5001;51.674;7.868;2024-03-02T14:34:23;14.60;99.90
9925;DHT22;5001;51.674;7.868;2024-03-02T14:36:50;14.50;99.90
9925;DHT22;5001;51.674;7.868;2024-03-02T14:39:17;14.50;99.90
9925;DHT22;5001;51.674;7.868;2024-03-02T14:41:46;14.40;99.90
9925;DHT22;5001;51.674;7.868;2024-03-02T14:44:13;14.40;99.90
9925;DHT22;5001;51.674;7.868;2024-03-02T14:46:40;14.30;99.90
9925;DHT22;5001;51.674;7.868;2024-03-02T14:49:10;14.30;99.90
9925;DHT22;5001;51.674;7.868;2024-03-02T14:51:37;14.20;99.90
9925;DHT22;5001;51.674;7.868;2024-03-02T14:54:05;14.30;99.90
9925;DHT22;5001;51.674;7.868;2024-03-02T14:56:32;14.30;99.90
9925;DHT22;5001;51.674;7.868;2024-03-02T14:58:59;14.30;99.90
9925;DHT22;5001;51.674;7.868;2024-03-02T15:01:26;14.20;99.90
9925;DHT22;5001;51.674;7.868;2024-03-02T15:03:53;14.20;99.90
9925;DHT22;5001;51.674;7.868;2024-03-02T15:06:20;14.10;99.90
9925;DHT22;5001;51.674;7.868;2024-03-02T15:08:47;14.10;99.90
9925;DHT22;5001;51.674;7.868;2024-03-02T15:11:14;14.10;99.90
9925;DHT22;5001;51.674;7.868;2024-03-02T15:13:42;14.00;99.90
9925;DHT22;5001;51.674;7.868;2024-03-02T15:16:09;14.00;99.90
9925;DHT22;5001;51.674;7.868;2024-03-02T15:18:36;14.00;99.90
9925;DHT22;5001;51.674;7.868;2024-03-02T15:21:04;14.00;99.90
9925;DHT22;5001;51.674;7.868;2024-03-02T15:23:31;14.00;99.90
9925;DHT22;5001;51.674;7.868;2024-03-02T15:25:57;14.00;99.90
9925;DHT22;5001;51.674;7.868;2024-03-02T15:28:24;13.90;99.90
9925;DHT22;5001;51.674;7.868;2024-03-02T15:30:51;14.00;99.90
9925;DHT22;5001;51.674;7.868;2024-03-02T15:33:22;14.00;99.90
9925;DHT22;5001;51.674;7.868;2024-03-02T15:35:52;13.90;99.90
9925;DHT22;5001;51.674;7.868;2024-03-02T15:38:22;13.90;99.90
9925;DHT22;5001;51.674;7.868;2024-03-02T15:41:00;13.90;99.90
9925;DHT22;5001;51.674;7.868;2024-03-02T15:43:26;14.10;99.90
9925;DHT22;5001;51.674;7.868;2024-03-02T15:45:53;14.10;99.90
9925;DHT22;5001;51.674;7.868;2024-03-02T15:48:21;14.10;99.90
9925;DHT22;5001;51.674;7.868;2024-03-02T15:50:48;14.00;99.90
9925;DHT22;5001;51.674;7.868;2024-03-02T15:53:16;13.90;99.90
9925;DHT22;5001;51.674;7.868;2024-03-02T15:55:43;14.00;99.90
9925;DHT22;5001;51.674;7.868;2024-03-02T15:58:10;14.00;99.90
9925;DHT22;5001;51.674;7.868;2024-03-02T16:00:37;14.00;99.90
9925;DHT22;5001;51.674;7.868;2024-03-02T16:03:04;14.10;99.90
9925;DHT22;5001;51.674;7.868;2024-03-02T16:05:31;14.00;99.90
9925;DHT22;5001;51.674;7.868;2024-03-02T16:07:58;13.90;99.90
9925;DHT22;5001;51.674;7.868;2024-03-02T16:10:25;13.90;99.90
9925;DHT22;5001;51.674;7.868;2024-03-02T16:12:53;13.80;99.90
9925;DHT22;5001;51.674;7.868;2024-03-02T16:15:22;13.80;99.90
9925;DHT22;5001;51.674;7.868;2024-03-02T16:17:49;13.80;99.90
9925;DHT22;5001;51.674;7.868;2024-03-02T16:20:16;13.70;99.90
9925;DHT22;5001;51.674;7.868;2024-03-02T16:22:43;13.70;99.90
9925;DHT22;5001;51.674;7.868;2024-03-02T16:25:10;13.70;99.90
9925;DHT22;5001;51.674;7.868;2024-03-02T16:27:37;13.60;99.90
9925;DHT22;5001;51.674;7.868;2024-03-02T16:30:06;13.60;99.90